UCT Elwood — V7HW9 — position and weather

sailwx.info

Track history (hours):
 
Tides and Currents Weather Stations Pressure Air Temp Water Temp Dewpoint Dewpoint Depression Visibility Wind Speed Wind Dir Waves Ship Positions

UCT Elwood

Last reported at 2017-May-24 02:16 UTC. Time now 2017-May-24 10:05 UTC.
Position N 34°47' E 139°35'.

Type: Ship (hazmat cat B). MMSI: 538002324.

Date/timePositionNaut miles runAvg speedWind from/ knotsBaromVisibWave heightAir tempDewpointWater temp
2017-May-24 02:16N 34°47' E 139°35'512.7
2017-May-24 01:55N 34°52' E 139°37'513.2
2017-May-24 01:30N 34°57' E 139°39'713.3
2017-May-24 01:00N 35°03' E 139°43'612.4
2017-May-24 00:30N 35°09' E 139°45'510.4
2017-May-24 00:00N 35°14' E 139°46'611.4
2017-May-23 23:30N 35°19' E 139°43'611.2
2017-May-23 23:00N 35°25' E 139°43'612.8
2017-May-23 22:30N 35°29' E 139°49'612.1
2017-May-23 22:00N 35°32' E 139°55'612.1
2017-May-23 21:30N 35°35' E 140°02'3 0.1
2017-May-22 02:50N 35°36' E 140°05'0 0.6
2017-May-22 02:28N 35°36' E 140°05'0 1.0
2017-May-22 02:00N 35°36' E 140°06'0 0.0
2017-May-21 13:33N 35°36' E 140°06'0 0.0
2017-May-21 13:27N 35°36' E 140°06'0 0.0
2017-May-21 09:33N 35°36' E 140°06'0 0.0
2017-May-21 09:27N 35°36' E 140°06'0 0.0
2017-May-21 06:03N 35°36' E 140°06'0 0.0
2017-May-21 05:09N 35°36' E 140°06'0 0.0
2017-May-21 04:39N 35°36' E 140°06'0 0.0
2017-May-21 03:15N 35°36' E 140°06'0 0.0
2017-May-21 02:57N 35°36' E 140°06'0 0.0
2017-May-21 02:27N 35°36' E 140°06'0 0.0
2017-May-20 19:33N 35°36' E 140°06'0 0.0
2017-May-20 19:15N 35°36' E 140°06'0 0.0
2017-May-20 18:57N 35°36' E 140°06'0 0.0
2017-May-20 18:21N 35°36' E 140°06'0 0.0
2017-May-20 15:03N 35°36' E 140°06'0 0.0
2017-May-20 13:39N 35°36' E 140°06'0 0.0
2017-May-20 13:09N 35°36' E 140°06'0 0.0
2017-May-20 12:57N 35°36' E 140°06'0 0.0
2017-May-20 09:45N 35°36' E 140°06'0 0.0
2017-May-20 05:42N 35°36' E 140°06'0 0.0
2017-May-19 17:33N 35°36' E 140°06'0 0.0
2017-May-19 17:21N 35°36' E 140°06'0 0.0
2017-May-19 15:09N 35°36' E 140°06'0 0.0
2017-May-19 14:51N 35°36' E 140°06'0 0.0
2017-May-19 14:21N 35°36' E 140°06'0 0.0
2017-May-19 09:45N 35°36' E 140°06'0 0.0
2017-May-19 09:21N 35°36' E 140°06'0 0.0
2017-May-19 08:51N 35°36' E 140°06'0 0.0
2017-May-19 08:30N 35°36' E 140°06'0 0.0
2017-May-19 07:57N 35°36' E 140°06'0 0.0
2017-May-19 02:27N 35°36' E 140°06'1 0.0
2017-May-17 22:14N 35°36' E 140°05'1 5.6
2017-May-17 22:00N 35°35' E 140°03'4 7.7
2017-May-17 21:31N 35°33' E 139°59'2 2.9
2017-May-17 20:58N 35°32' E 139°58'0 0.0
2017-May-17 20:29N 35°32' E 139°58'0 0.1
2017-May-17 20:00N 35°32' E 139°58'0 0.1
2017-May-17 19:30N 35°32' E 139°58'1 2.5
2017-May-17 19:00N 35°31' E 139°57'4 8.7
2017-May-17 18:30N 35°29' E 139°52'611.3
2017-May-17 18:00N 35°25' E 139°47'510.9
2017-May-17 17:30N 35°20' E 139°44'5 9.9
2017-May-17 17:00N 35°16' E 139°47'510.1
2017-May-17 16:30N 35°11' E 139°47'4 7.9
2017-May-17 16:00N 35°07' E 139°45'4 7.4
2017-May-17 15:30N 35°03' E 139°43'2 4.1
2017-May-17 15:00N 35°02' E 139°42'  
Track history (hours):
 
Tides and Currents Weather Stations Pressure Air Temp Water Temp Dewpoint Dewpoint Depression Visibility Wind Speed Wind Dir Waves Ship Positions

UCT Elwood

Last reported at 2017-May-24 02:16 UTC. Time now 2017-May-24 10:05 UTC.
Position N 34°47' E 139°35'.

Type: Ship (hazmat cat B). MMSI: 538002324.

Date/timePositionNaut miles runAvg speedWind from/ knotsBaromVisibWave heightAir tempDewpointWater temp
2017-May-24 02:16N 34°47' E 139°35'512.7
2017-May-24 01:55N 34°52' E 139°37'513.2
2017-May-24 01:30N 34°57' E 139°39'713.3
2017-May-24 01:00N 35°03' E 139°43'612.4
2017-May-24 00:30N 35°09' E 139°45'510.4
2017-May-24 00:00N 35°14' E 139°46'611.4
2017-May-23 23:30N 35°19' E 139°43'611.2
2017-May-23 23:00N 35°25' E 139°43'612.8
2017-May-23 22:30N 35°29' E 139°49'612.1
2017-May-23 22:00N 35°32' E 139°55'612.1
2017-May-23 21:30N 35°35' E 140°02'3 0.1
2017-May-22 02:50N 35°36' E 140°05'0 0.6
2017-May-22 02:28N 35°36' E 140°05'0 1.0
2017-May-22 02:00N 35°36' E 140°06'0 0.0
2017-May-21 13:33N 35°36' E 140°06'0 0.0
2017-May-21 13:27N 35°36' E 140°06'0 0.0
2017-May-21 09:33N 35°36' E 140°06'0 0.0
2017-May-21 09:27N 35°36' E 140°06'0 0.0
2017-May-21 06:03N 35°36' E 140°06'0 0.0
2017-May-21 05:09N 35°36' E 140°06'0 0.0
2017-May-21 04:39N 35°36' E 140°06'0 0.0
2017-May-21 03:15N 35°36' E 140°06'0 0.0
2017-May-21 02:57N 35°36' E 140°06'0 0.0
2017-May-21 02:27N 35°36' E 140°06'0 0.0
2017-May-20 19:33N 35°36' E 140°06'0 0.0
2017-May-20 19:15N 35°36' E 140°06'0 0.0
2017-May-20 18:57N 35°36' E 140°06'0 0.0
2017-May-20 18:21N 35°36' E 140°06'0 0.0
2017-May-20 15:03N 35°36' E 140°06'0 0.0
2017-May-20 13:39N 35°36' E 140°06'0 0.0
2017-May-20 13:09N 35°36' E 140°06'0 0.0
2017-May-20 12:57N 35°36' E 140°06'0 0.0
2017-May-20 09:45N 35°36' E 140°06'0 0.0
2017-May-20 05:42N 35°36' E 140°06'0 0.0
2017-May-19 17:33N 35°36' E 140°06'0 0.0
2017-May-19 17:21N 35°36' E 140°06'0 0.0
2017-May-19 15:09N 35°36' E 140°06'0 0.0
2017-May-19 14:51N 35°36' E 140°06'0 0.0
2017-May-19 14:21N 35°36' E 140°06'0 0.0
2017-May-19 09:45N 35°36' E 140°06'0 0.0
2017-May-19 09:21N 35°36' E 140°06'0 0.0
2017-May-19 08:51N 35°36' E 140°06'0 0.0
2017-May-19 08:30N 35°36' E 140°06'0 0.0
2017-May-19 07:57N 35°36' E 140°06'0 0.0
2017-May-19 02:27N 35°36' E 140°06'1 0.0
2017-May-17 22:14N 35°36' E 140°05'1 5.6
2017-May-17 22:00N 35°35' E 140°03'4 7.7
2017-May-17 21:31N 35°33' E 139°59'2 2.9
2017-May-17 20:58N 35°32' E 139°58'0 0.0
2017-May-17 20:29N 35°32' E 139°58'0 0.1
2017-May-17 20:00N 35°32' E 139°58'0 0.1
2017-May-17 19:30N 35°32' E 139°58'1 2.5
2017-May-17 19:00N 35°31' E 139°57'4 8.7
2017-May-17 18:30N 35°29' E 139°52'611.3
2017-May-17 18:00N 35°25' E 139°47'510.9
2017-May-17 17:30N 35°20' E 139°44'5 9.9
2017-May-17 17:00N 35°16' E 139°47'510.1
2017-May-17 16:30N 35°11' E 139°47'4 7.9
2017-May-17 16:00N 35°07' E 139°45'4 7.4
2017-May-17 15:30N 35°03' E 139°43'2 4.1
2017-May-17 15:00N 35°02' E 139°42'  

Dump ship's entire track history